San Anselmo, CA

10:41 PM PDT on September 16, 2014 (GMT -0700)
Belle Avenue | Change Station
CLOSE
Current Station
Personal Weather Station
Location: San Rafael, CA
Elevation: 256 ft
Nearby Weather Stations

Elev 256 ft 37.97 °N, 122.51 °W | Updated 20 seconds ago

Partly Cloudy
Partly Cloudy
64.8 °F
Feels Like 64.8 °F
N
0.0
Wind Variable Wind from SSE
Gusts 0.0 mph

Today
High -- | Low -- °F
--% Chance of Precip.
Yesterday
High -- | Low -- °F
Precip. -- in
6:52 AM 7:16 PM
Last Quarter, 39% visible
Pressure 29.86 in
Visibility 9.0 miles
Clouds Overcast 900 ft
Dew Point 50 °F
Humidity 60%
Rainfall 0.00 in
Snow Depth 0 in , 0 in , 0 in
UV 0 out of 12
Pollen 5.20 out of 12
Ozone Good
PM2.5 Good
Flu Activity Not available.
METAR KO69 170535Z AUTO 28007KT 9SM OVC009 17/15 A2986 RMK AO1

More Conditions Fewer Conditions

Pressure 29.86 in
Visibility 9.0 miles
Clouds Overcast 900 ft
Dew Point 50 °F
Humidity 60%
Rainfall 0.00 in
Snow Depth 0 in , 0 in , 0 in
UV 0 out of 12
Pollen 5.20 out of 12
Ozone Good
PM2.5 Good
Flu Activity Not available.
METAR KO69 170535Z AUTO 28007KT 9SM OVC009 17/15 A2986 RMK AO1

More Conditions Fewer Conditions

10-Day Weather Forecast

Almanac

Astronomy

Sep. 16, 2014 Rise Set
Actual Time 6:52 AM PDT 7:16 PM PDT
Civil Twilight 6:26 AM PDT 7:42 PM PDT
Nautical Twilight 5:55 AM PDT 8:13 PM PDT
Astronomical Twilight 5:23 AM PDT 8:44 PM PDT
Moon 12:11 AM PDT (9/16) 2:40 PM PDT (9/16)
Length of Visible Light 13h 16m
Length of Day
12h 23m
Tomorrow will be 2m 26s shorter.
Last Quarter, 39% of the Moon is Illuminated
Sep 17
Last Quarter
Sep 24
New
Oct 1
First Quarter
Oct 8
Full
Oct 15
Last Quarter

Yesterday's Extremes

State Highs State Lows

Community

WunderPhotos

Upload Photos

1,753,968 photos uploaded!

Nearby

Air Quality

  Air Quality AQ Index Pollutant
Yesterday Moderate
PM2.5
Yesterday Good
OZONE
Current Good
PM2.5
Current Good
OZONE
Tuesday Good
PM2.5
Wednesday Good
PM2.5
Thursday Good
PM2.5
Friday Good
PM2.5
Saturday Good
PM2.5
Sunday Good
PM2.5

Snow Depth

Station Depth Elevation
Forestdale Creek 0 in 8029 ft
Summit Meadow 0 in 9122 ft
Spratt Creek 0 in 6200 ft
Rubicon #2 0 in 7500 ft
Monitor Pass 0 in 8350 ft

Earthquake Activity

City Distance Mag. Time & Date
Cobb, California 57 miles 2.7 1:23 PM PDT
2014-09-16
Covelo, California 127 miles 3.3 1:17 PM PDT
2014-09-14
Cobb, California 60 miles 2.7 11:07 AM PDT
2014-09-14
Minimum magnitude displayed is 2.5.

Coastal Water Temperatures

Place Temperature
San Francisco, CA 64.0 °F
Richmond, CA 68.0 °F
Port Chicago, CA 71.1 °F

Nearby Weather Stations